createdAt,value
2023-03-03T00:00:51.330Z,30.20
2023-03-03T00:03:23.052Z,30.43
2023-03-03T00:05:50.534Z,30.20
2023-03-03T00:08:18.854Z,30.70
2023-03-03T00:10:46.002Z,28.80
2023-03-03T00:13:17.645Z,28.90
2023-03-03T00:15:44.986Z,28.53
2023-03-03T00:18:23.914Z,29.50
2023-03-03T00:20:54.908Z,29.37
2023-03-03T00:23:29.809Z,28.83
2023-03-03T00:25:57.834Z,30.03
2023-03-03T00:28:25.048Z,29.80
2023-03-03T00:30:56.925Z,32.97
2023-03-03T00:33:34.649Z,31.27
2023-03-03T00:36:21.854Z,30.43
2023-03-03T00:38:49.929Z,31.10
2023-03-03T00:41:21.629Z,31.57
2023-03-03T00:43:48.761Z,31.80
2023-03-03T00:46:19.890Z,32.43
2023-03-03T00:48:47.517Z,31.77
2023-03-03T00:51:23.543Z,30.47
2023-03-03T00:53:50.894Z,30.20
2023-03-03T00:56:18.152Z,29.80
2023-03-03T00:58:47.600Z,30.93
2023-03-03T01:01:15.302Z,31.20
2023-03-03T01:03:42.925Z,30.63
2023-03-03T01:06:10.395Z,29.97
2023-03-03T01:08:37.562Z,30.43
2023-03-03T01:11:06.828Z,31.37
2023-03-03T01:13:37.560Z,30.50
2023-03-03T01:16:05.526Z,30.20
2023-03-03T01:18:33.180Z,30.23
2023-03-03T01:21:02.032Z,30.43
2023-03-03T01:23:29.695Z,31.00
2023-03-03T01:25:56.872Z,31.57
2023-03-03T01:28:24.052Z,30.33
2023-03-03T01:30:54.097Z,30.87
2023-03-03T01:33:23.370Z,29.73
2023-03-03T01:35:50.642Z,29.03
2023-03-03T01:38:17.909Z,29.70
2023-03-03T01:40:53.248Z,30.07
2023-03-03T01:43:20.550Z,29.70
2023-03-03T01:45:51.017Z,30.50
2023-03-03T01:48:35.315Z,29.97
2023-03-03T01:51:04.810Z,29.57
2023-03-03T01:53:44.259Z,28.60
2023-03-03T01:56:11.702Z,28.80
2023-03-03T01:58:45.505Z,29.47
2023-03-03T02:01:15.548Z,31.07
2023-03-03T02:03:44.278Z,29.13
2023-03-03T02:06:14.108Z,29.53
2023-03-03T02:09:00.350Z,30.47
2023-03-03T02:11:28.327Z,30.97
2023-03-03T02:13:55.646Z,29.17
2023-03-03T02:16:23.010Z,29.87
2023-03-03T02:18:50.216Z,30.13
2023-03-03T02:21:19.105Z,29.70
2023-03-03T02:24:06.598Z,29.13
2023-03-03T02:26:35.468Z,29.37
2023-03-03T02:29:02.853Z,29.70
2023-03-03T02:31:32.651Z,30.53
2023-03-03T02:33:59.958Z,31.00
2023-03-03T02:36:32.871Z,30.47
2023-03-03T02:39:04.064Z,28.97
2023-03-03T02:41:31.275Z,29.27
2023-03-03T02:44:01.082Z,29.20
2023-03-03T02:46:29.617Z,30.93
2023-03-03T02:48:56.782Z,30.03
2023-03-03T02:51:24.480Z,29.30
2023-03-03T02:53:51.758Z,30.43
2023-03-03T02:56:18.989Z,27.80
2023-03-03T02:58:46.285Z,29.97
2023-03-03T03:01:14.008Z,29.67
2023-03-03T03:03:41.332Z,29.90
2023-03-03T03:06:08.573Z,28.67
2023-03-03T03:08:36.090Z,30.23
2023-03-03T03:11:03.824Z,30.90
2023-03-03T03:13:31.997Z,31.60
2023-03-03T03:15:59.597Z,29.57
2023-03-03T03:18:27.123Z,29.87
2023-03-03T03:20:54.683Z,29.87
2023-03-03T03:23:24.774Z,30.27
2023-03-03T03:25:52.480Z,29.33
2023-03-03T03:28:19.835Z,31.50
2023-03-03T03:30:47.073Z,30.03
2023-03-03T03:33:17.442Z,31.40
2023-03-03T03:35:47.123Z,30.30
2023-03-03T03:38:14.894Z,30.77
2023-03-03T03:40:42.608Z,30.17
2023-03-03T03:43:10.012Z,29.80
2023-03-03T03:45:38.079Z,29.03
2023-03-03T03:48:05.400Z,29.13
2023-03-03T03:50:32.570Z,30.37
2023-03-03T03:52:59.716Z,31.07
2023-03-03T03:55:27.081Z,30.57
2023-03-03T03:57:54.186Z,30.20
2023-03-03T04:00:21.526Z,30.23
2023-03-03T04:02:49.015Z,31.67
2023-03-03T04:05:16.196Z,39.63
2023-03-03T04:07:43.341Z,37.27
2023-03-03T04:10:10.721Z,35.17
2023-03-03T04:12:38.721Z,34.70
2023-03-03T04:15:07.227Z,37.43
2023-03-03T04:17:34.416Z,36.80
2023-03-03T04:20:02.432Z,39.27
2023-03-03T04:22:33.782Z,34.00
2023-03-03T04:25:05.071Z,33.97
2023-03-03T04:27:36.111Z,33.13
2023-03-03T04:30:04.411Z,33.07
2023-03-03T04:32:33.968Z,33.87
2023-03-03T04:35:07.691Z,33.47
2023-03-03T04:37:36.453Z,34.57
2023-03-03T04:40:04.888Z,33.97
2023-03-03T04:42:32.046Z,33.67
2023-03-03T04:44:59.269Z,33.23
2023-03-03T04:47:26.893Z,32.50
2023-03-03T04:49:54.175Z,31.90
2023-03-03T04:52:21.565Z,33.53
2023-03-03T04:54:48.792Z,33.43
2023-03-03T04:57:16.438Z,32.97
2023-03-03T04:59:43.621Z,33.33
2023-03-03T05:02:11.018Z,34.83
2023-03-03T05:04:38.269Z,34.20
2023-03-03T05:07:05.504Z,32.70
2023-03-03T05:09:33.287Z,33.57
2023-03-03T05:12:00.490Z,33.33
2023-03-03T05:14:27.864Z,33.17
2023-03-03T05:16:55.281Z,32.53
2023-03-03T05:19:22.467Z,33.37
2023-03-03T05:21:49.713Z,34.70
2023-03-03T05:24:17.147Z,33.90
2023-03-03T05:26:44.300Z,33.43
2023-03-03T05:29:11.522Z,33.27
2023-03-03T05:31:38.833Z,34.30
2023-03-03T05:34:06.041Z,34.37
2023-03-03T05:36:33.198Z,33.90
2023-03-03T05:39:00.339Z,33.53
2023-03-03T05:41:27.503Z,33.87
2023-03-03T05:43:54.649Z,32.47
2023-03-03T05:46:21.903Z,33.43
2023-03-03T05:48:49.253Z,33.23
2023-03-03T05:51:16.414Z,33.80
2023-03-03T05:53:43.609Z,34.03
2023-03-03T05:56:10.879Z,33.17
2023-03-03T05:58:38.152Z,32.63
2023-03-03T06:01:05.431Z,33.30
2023-03-03T06:03:32.540Z,32.93
2023-03-03T06:05:59.814Z,33.30
2023-03-03T06:08:27.033Z,33.53
2023-03-03T06:10:54.172Z,32.63
2023-03-03T06:13:21.526Z,32.60
2023-03-03T06:15:48.675Z,33.63
2023-03-03T06:18:15.916Z,31.10
2023-03-03T06:20:43.056Z,31.77
2023-03-03T06:23:10.232Z,33.00
2023-03-03T06:25:37.397Z,32.97
2023-03-03T06:28:04.741Z,32.87
2023-03-03T06:30:31.960Z,31.77
2023-03-03T06:32:59.059Z,32.57
2023-03-03T06:35:26.241Z,33.47
2023-03-03T06:37:53.710Z,32.57
2023-03-03T06:40:21.057Z,31.80
2023-03-03T06:42:48.286Z,32.27
2023-03-03T06:45:18.046Z,32.97
2023-03-03T06:47:45.338Z,31.97
2023-03-03T06:50:13.329Z,33.53
2023-03-03T06:52:40.675Z,32.60
2023-03-03T06:55:12.158Z,30.80
2023-03-03T06:57:39.667Z,32.47
2023-03-03T07:00:16.020Z,31.77
2023-03-03T07:02:43.912Z,32.37
2023-03-03T07:05:16.417Z,32.03
2023-03-03T07:07:43.616Z,31.87
2023-03-03T07:10:27.029Z,34.77
2023-03-03T07:12:54.768Z,31.63
2023-03-03T07:15:30.863Z,31.70
2023-03-03T07:18:02.734Z,31.50
2023-03-03T07:20:42.004Z,31.53
2023-03-03T07:23:29.477Z,32.37
2023-03-03T07:25:56.695Z,33.27
2023-03-03T07:28:30.848Z,32.60
2023-03-03T07:30:58.609Z,32.47
2023-03-03T07:33:25.763Z,32.37
2023-03-03T07:35:54.688Z,34.83
2023-03-03T07:38:30.288Z,31.77
2023-03-03T07:41:02.042Z,32.43
2023-03-03T07:43:35.250Z,33.73
2023-03-03T07:46:11.874Z,31.50
2023-03-03T07:48:44.121Z,32.77
2023-03-03T07:51:17.287Z,32.67
2023-03-03T07:53:44.449Z,30.77
2023-03-03T07:56:22.877Z,32.03
2023-03-03T07:58:51.800Z,32.40
2023-03-03T08:01:40.788Z,31.07
2023-03-03T08:04:14.591Z,31.73
2023-03-03T08:06:49.491Z,31.77
2023-03-03T08:09:16.628Z,30.83
2023-03-03T08:11:58.898Z,32.50
2023-03-03T08:14:28.422Z,30.43
2023-03-03T08:16:56.689Z,30.43
2023-03-03T08:19:24.237Z,30.47
2023-03-03T08:21:52.734Z,29.73
2023-03-03T08:24:19.854Z,29.30
2023-03-03T08:26:47.089Z,29.37
2023-03-03T08:29:14.268Z,29.60
2023-03-03T08:31:42.266Z,29.50
2023-03-03T08:34:09.803Z,30.67
2023-03-03T08:36:36.953Z,31.27
2023-03-03T08:39:05.282Z,28.80
2023-03-03T08:41:32.560Z,30.30
2023-03-03T08:43:59.835Z,29.53
2023-03-03T08:46:28.831Z,28.53
2023-03-03T08:48:56.023Z,28.20
2023-03-03T08:51:23.828Z,29.17
2023-03-03T08:53:51.071Z,29.63
2023-03-03T08:56:18.227Z,28.63
2023-03-03T08:59:01.335Z,28.07
2023-03-03T09:01:29.748Z,27.77
2023-03-03T09:03:57.000Z,29.17
2023-03-03T09:06:24.191Z,29.20
2023-03-03T09:08:51.511Z,29.37
2023-03-03T09:11:27.721Z,27.87
2023-03-03T09:14:11.104Z,28.30
2023-03-03T09:16:40.125Z,27.93
2023-03-03T09:19:20.299Z,27.63
2023-03-03T09:21:47.493Z,27.33
2023-03-03T09:24:24.248Z,28.23
2023-03-03T09:26:53.846Z,28.87
2023-03-03T09:29:31.635Z,28.17
2023-03-03T09:32:01.112Z,27.93
2023-03-03T09:34:28.614Z,26.00
2023-03-03T09:36:56.455Z,29.70
2023-03-03T09:39:25.418Z,27.37
2023-03-03T09:41:52.571Z,27.13
2023-03-03T09:44:28.918Z,28.43
2023-03-03T09:47:05.015Z,27.43
2023-03-03T09:49:33.403Z,26.83
2023-03-03T09:52:03.386Z,25.53
2023-03-03T09:54:56.880Z,26.00
2023-03-03T09:57:27.058Z,25.43
2023-03-03T10:00:00.129Z,26.60
2023-03-03T10:02:30.457Z,27.33
2023-03-03T10:05:00.460Z,26.30
2023-03-03T10:07:27.656Z,26.83
2023-03-03T10:10:08.731Z,27.13
2023-03-03T10:12:45.147Z,27.27
2023-03-03T10:15:30.897Z,27.23
2023-03-03T10:18:07.420Z,25.83
2023-03-03T10:20:53.510Z,27.73
2023-03-03T10:23:24.151Z,28.07
2023-03-03T10:25:58.295Z,27.33
2023-03-03T10:28:46.720Z,27.13
2023-03-03T10:31:32.799Z,26.23
2023-03-03T10:34:20.290Z,27.23
2023-03-03T10:37:06.630Z,25.93
2023-03-03T10:39:51.743Z,26.57
2023-03-03T10:42:28.301Z,27.00
2023-03-03T10:45:13.794Z,26.80
2023-03-03T10:48:16.332Z,25.50
2023-03-03T10:50:52.185Z,24.57
2023-03-03T10:53:27.080Z,24.37
2023-03-03T10:56:02.304Z,24.57
2023-03-03T10:58:40.978Z,24.60
2023-03-03T11:01:08.327Z,24.83
2023-03-03T11:03:54.290Z,24.00
2023-03-03T11:06:40.632Z,23.03
2023-03-03T11:09:10.996Z,24.80
2023-03-03T11:11:41.532Z,23.40
2023-03-03T11:14:23.910Z,23.00
2023-03-03T11:16:54.149Z,23.70
2023-03-03T11:19:40.156Z,23.33
2023-03-03T11:22:17.038Z,23.37
2023-03-03T11:25:02.323Z,28.27
2023-03-03T11:27:32.303Z,24.13
2023-03-03T11:30:00.305Z,25.33
2023-03-03T11:32:39.521Z,25.00
2023-03-03T11:35:22.078Z,23.37
2023-03-03T11:37:59.751Z,25.50
2023-03-03T11:40:47.707Z,24.27
2023-03-03T11:43:35.376Z,24.33
2023-03-03T11:46:09.730Z,24.33
2023-03-03T11:48:39.982Z,24.60
2023-03-03T11:51:08.369Z,25.27
2023-03-03T11:53:48.024Z,24.80
2023-03-03T11:56:50.506Z,24.23
2023-03-03T11:59:30.228Z,24.67
2023-03-03T12:01:58.931Z,26.07
2023-03-03T12:04:30.873Z,24.33
2023-03-03T12:07:19.954Z,24.87
2023-03-03T12:09:53.576Z,25.43
2023-03-03T12:12:39.387Z,23.37
2023-03-03T12:15:23.576Z,23.77
2023-03-03T12:18:09.309Z,24.17
2023-03-03T12:20:55.306Z,24.43
2023-03-03T12:23:25.649Z,25.03
2023-03-03T12:25:59.352Z,24.03
2023-03-03T12:28:29.140Z,24.80
2023-03-03T12:31:10.200Z,25.10
2023-03-03T12:33:53.974Z,24.17
2023-03-03T12:36:21.169Z,24.47
2023-03-03T12:38:48.366Z,25.33
2023-03-03T12:41:24.879Z,25.17
2023-03-03T12:44:12.269Z,23.83
2023-03-03T12:46:58.376Z,25.13
2023-03-03T12:49:42.477Z,23.57
2023-03-03T12:52:10.228Z,23.70
2023-03-03T12:54:43.506Z,25.67
2023-03-03T12:57:13.558Z,25.53
2023-03-03T12:59:50.478Z,24.33
2023-03-03T13:02:36.552Z,23.57
2023-03-03T13:05:03.649Z,24.20
2023-03-03T13:07:46.168Z,22.90
2023-03-03T13:10:24.853Z,23.57
2023-03-03T13:12:56.427Z,22.33
2023-03-03T13:15:32.743Z,24.20
2023-03-03T13:18:07.338Z,24.23
2023-03-03T13:20:45.726Z,22.70
2023-03-03T13:23:27.476Z,23.00
2023-03-03T13:25:59.073Z,21.83
2023-03-03T13:28:35.347Z,22.77
2023-03-03T13:31:06.573Z,22.37
2023-03-03T13:33:36.934Z,21.67
2023-03-03T13:36:09.688Z,24.33
2023-03-03T13:38:47.035Z,24.03
2023-03-03T13:41:26.553Z,23.53
2023-03-03T13:44:15.043Z,22.27
2023-03-03T13:46:50.578Z,26.10
2023-03-03T13:49:24.042Z,23.47
2023-03-03T13:51:54.419Z,23.00
2023-03-03T13:54:37.155Z,22.33
2023-03-03T13:57:19.578Z,21.73
2023-03-03T14:00:02.303Z,23.80
2023-03-03T14:02:42.491Z,21.87
2023-03-03T14:05:32.964Z,21.53
2023-03-03T14:08:03.373Z,21.97
2023-03-03T14:10:30.454Z,21.80
2023-03-03T14:13:04.580Z,21.87
2023-03-03T14:15:43.948Z,21.27
2023-03-03T14:18:22.622Z,22.27
2023-03-03T14:21:13.361Z,22.00
2023-03-03T14:23:57.416Z,19.47
2023-03-03T14:26:25.030Z,20.40
2023-03-03T14:29:04.199Z,21.60
2023-03-03T14:31:39.081Z,22.83
2023-03-03T14:34:12.353Z,23.40
2023-03-03T14:36:40.600Z,23.03
2023-03-03T14:39:26.041Z,21.87
2023-03-03T14:41:53.666Z,22.90
2023-03-03T14:44:28.557Z,23.17
2023-03-03T14:47:12.441Z,23.70
2023-03-03T14:49:40.236Z,23.33
2023-03-03T14:52:19.140Z,23.80
2023-03-03T14:54:50.872Z,23.30
2023-03-03T14:57:18.185Z,23.87
2023-03-03T14:59:59.024Z,24.77
2023-03-03T15:02:35.707Z,23.60
2023-03-03T15:05:32.391Z,23.13
2023-03-03T15:08:05.431Z,24.73
2023-03-03T15:10:43.326Z,24.57
2023-03-03T15:13:22.403Z,23.47
2023-03-03T15:15:53.694Z,24.70
2023-03-03T15:18:21.245Z,22.60
2023-03-03T15:20:53.970Z,23.50
2023-03-03T15:23:33.326Z,22.77
2023-03-03T15:26:19.799Z,24.27
2023-03-03T15:28:56.143Z,23.87
2023-03-03T15:31:42.333Z,23.87
2023-03-03T15:34:19.152Z,26.13
2023-03-03T15:36:52.124Z,25.13
2023-03-03T15:39:22.324Z,25.23
2023-03-03T15:42:01.482Z,25.27
2023-03-03T15:44:37.439Z,25.63
2023-03-03T15:47:07.380Z,24.87
2023-03-03T15:49:38.454Z,23.20
2023-03-03T15:52:22.620Z,24.50
2023-03-03T15:54:49.807Z,24.43
2023-03-03T15:57:32.693Z,25.73
2023-03-03T16:00:04.484Z,24.43
2023-03-03T16:02:52.848Z,25.10
2023-03-03T16:05:32.249Z,24.83
2023-03-03T16:08:12.865Z,27.27
2023-03-03T16:10:56.138Z,27.90
2023-03-03T16:13:29.455Z,27.23
2023-03-03T16:16:05.549Z,29.17
2023-03-03T16:18:51.355Z,30.53
2023-03-03T16:21:42.202Z,31.77
2023-03-03T16:24:17.948Z,31.93
2023-03-03T16:26:54.575Z,27.63
2023-03-03T16:29:40.251Z,27.63
2023-03-03T16:32:12.481Z,27.83
2023-03-03T16:34:59.302Z,28.03
2023-03-03T16:37:26.407Z,28.77
2023-03-03T16:40:05.946Z,29.23
2023-03-03T16:42:34.136Z,28.53
2023-03-03T16:45:24.718Z,32.57
2023-03-03T16:48:03.404Z,32.27
2023-03-03T16:50:30.636Z,42.13
2023-03-03T16:53:03.524Z,40.07
2023-03-03T16:55:47.084Z,42.50
2023-03-03T16:58:14.186Z,34.87
2023-03-03T17:00:45.573Z,31.73
2023-03-03T17:03:18.675Z,38.63
2023-03-03T17:05:52.823Z,41.57
2023-03-03T17:08:43.014Z,33.90
2023-03-03T17:11:13.262Z,29.53
2023-03-03T17:14:07.191Z,30.93
2023-03-03T17:16:53.006Z,30.03
2023-03-03T17:19:32.804Z,29.20
2023-03-03T17:22:12.055Z,29.80
2023-03-03T17:24:49.182Z,29.07
2023-03-03T17:27:20.592Z,31.17
2023-03-03T17:29:48.401Z,35.93
2023-03-03T17:32:18.887Z,35.30
2023-03-03T17:34:55.847Z,30.63
2023-03-03T17:37:35.251Z,31.83
2023-03-03T17:40:14.349Z,48.10
2023-03-03T17:42:57.276Z,58.37
2023-03-03T17:45:25.864Z,54.07
2023-03-03T17:47:58.886Z,49.93
2023-03-03T17:50:44.625Z,49.43
2023-03-03T17:53:11.756Z,37.80
2023-03-03T17:55:44.737Z,38.93
2023-03-03T17:58:30.085Z,34.80
2023-03-03T18:01:09.333Z,32.67
2023-03-03T18:03:56.895Z,31.60
2023-03-03T18:06:52.167Z,31.40
2023-03-03T18:09:19.250Z,32.00
2023-03-03T18:11:58.604Z,30.43
2023-03-03T18:14:47.646Z,30.93
2023-03-03T18:17:20.938Z,30.43
2023-03-03T18:19:57.569Z,31.23
2023-03-03T18:22:34.283Z,32.00
2023-03-03T18:25:03.198Z,33.13
2023-03-03T18:27:35.020Z,33.53
2023-03-03T18:30:20.881Z,35.90
2023-03-03T18:33:01.195Z,30.87
2023-03-03T18:35:28.490Z,30.13
2023-03-03T18:37:56.024Z,31.90
2023-03-03T18:40:33.914Z,29.90
2023-03-03T18:43:21.199Z,52.87
2023-03-03T18:45:50.048Z,37.13
2023-03-03T18:48:17.592Z,59.40
2023-03-03T18:50:45.859Z,31.70
2023-03-03T18:53:26.376Z,33.07
2023-03-03T18:55:55.372Z,34.37
2023-03-03T18:58:42.865Z,32.87
2023-03-03T19:01:10.741Z,31.70
2023-03-03T19:03:56.846Z,34.87
2023-03-03T19:06:30.395Z,41.90
2023-03-03T19:08:58.317Z,39.40
2023-03-03T19:11:32.570Z,38.13
2023-03-03T19:14:18.178Z,36.93
2023-03-03T19:16:45.990Z,38.73
2023-03-03T19:19:34.311Z,35.93
2023-03-03T19:22:20.089Z,32.67
2023-03-03T19:25:03.318Z,32.47
2023-03-03T19:27:39.379Z,32.67
2023-03-03T19:30:25.516Z,35.30
2023-03-03T19:32:58.712Z,34.43
2023-03-03T19:35:25.849Z,34.60
2023-03-03T19:37:59.960Z,34.20
2023-03-03T19:40:27.166Z,34.50
2023-03-03T19:43:20.420Z,35.80
2023-03-03T19:45:59.060Z,38.07
2023-03-03T19:48:32.184Z,38.47
2023-03-03T19:50:59.385Z,38.93
2023-03-03T19:53:37.160Z,40.23
2023-03-03T19:56:04.295Z,40.27
2023-03-03T19:58:36.446Z,38.57
2023-03-03T20:01:18.630Z,36.70
2023-03-03T20:03:45.794Z,37.33
2023-03-03T20:06:33.278Z,38.03
2023-03-03T20:09:03.996Z,41.40
2023-03-03T20:11:37.999Z,39.10
2023-03-03T20:14:15.158Z,41.10
2023-03-03T20:16:43.555Z,42.10
2023-03-03T20:19:49.294Z,38.20
2023-03-03T20:22:23.906Z,35.03
2023-03-03T20:24:51.081Z,33.70
2023-03-03T20:27:27.910Z,31.97
2023-03-03T20:30:16.004Z,31.80
2023-03-03T20:32:56.611Z,29.37
2023-03-03T20:35:41.268Z,29.80
2023-03-03T20:38:26.480Z,28.07
2023-03-03T20:40:56.645Z,30.10
2023-03-03T20:43:26.678Z,29.53
2023-03-03T20:46:12.711Z,29.87
2023-03-03T20:48:58.626Z,30.03
2023-03-03T20:51:25.777Z,29.60
2023-03-03T20:54:05.277Z,31.10
2023-03-03T20:56:43.766Z,31.57
2023-03-03T20:59:14.175Z,31.73
2023-03-03T21:01:59.741Z,30.83
2023-03-03T21:04:28.158Z,30.83
2023-03-03T21:06:55.620Z,32.73
2023-03-03T21:09:25.529Z,32.33
2023-03-03T21:11:53.348Z,33.00
2023-03-03T21:14:20.519Z,31.10
2023-03-03T21:16:47.806Z,32.70
2023-03-03T21:19:24.557Z,38.70
2023-03-03T21:21:52.266Z,37.10
2023-03-03T21:24:22.676Z,34.83
2023-03-03T21:26:53.208Z,35.83
2023-03-03T21:29:22.050Z,34.20
2023-03-03T21:31:56.143Z,39.90
2023-03-03T21:34:28.295Z,35.50
2023-03-03T21:36:55.980Z,33.27
2023-03-03T21:39:27.819Z,34.47
2023-03-03T21:41:56.749Z,35.40
2023-03-03T21:44:46.877Z,34.67
2023-03-03T21:47:15.098Z,33.43
2023-03-03T21:49:43.260Z,30.87
2023-03-03T21:52:10.981Z,29.70
2023-03-03T21:54:38.113Z,29.67
2023-03-03T21:57:05.836Z,33.17
2023-03-03T21:59:33.147Z,31.50
2023-03-03T22:02:00.296Z,31.17
2023-03-03T22:04:27.536Z,32.50
2023-03-03T22:06:54.713Z,32.20
2023-03-03T22:09:21.897Z,30.70
2023-03-03T22:11:49.251Z,30.13
2023-03-03T22:14:16.603Z,33.23
2023-03-03T22:16:43.812Z,30.23
2023-03-03T22:19:11.096Z,31.57
2023-03-03T22:21:39.425Z,31.10
2023-03-03T22:24:07.169Z,31.63
2023-03-03T22:26:37.361Z,29.80
2023-03-03T22:29:05.199Z,29.43
2023-03-03T22:31:32.544Z,29.30
2023-03-03T22:33:59.857Z,31.87
2023-03-03T22:36:27.218Z,29.40
2023-03-03T22:38:54.491Z,31.07
2023-03-03T22:41:22.494Z,30.10
2023-03-03T22:43:49.778Z,31.60
2023-03-03T22:46:17.218Z,30.00
2023-03-03T22:48:44.461Z,30.03
2023-03-03T22:51:11.719Z,30.67
2023-03-03T22:53:38.998Z,31.37
2023-03-03T22:56:06.330Z,30.70
2023-03-03T22:58:33.525Z,30.43
2023-03-03T23:01:01.356Z,32.00
2023-03-03T23:03:28.558Z,31.47
2023-03-03T23:05:55.871Z,30.53
2023-03-03T23:08:23.286Z,31.70
2023-03-03T23:10:50.602Z,31.87
2023-03-03T23:13:18.044Z,32.57
2023-03-03T23:15:45.595Z,35.97
2023-03-03T23:18:12.742Z,35.03
2023-03-03T23:20:42.297Z,34.33
2023-03-03T23:23:09.515Z,33.67
2023-03-03T23:25:36.751Z,34.80
2023-03-03T23:28:04.176Z,34.20
2023-03-03T23:30:31.633Z,32.70
2023-03-03T23:32:59.054Z,34.07
2023-03-03T23:35:26.304Z,35.40
2023-03-03T23:37:53.546Z,33.63
2023-03-03T23:40:20.793Z,34.40
2023-03-03T23:42:48.124Z,32.57
2023-03-03T23:45:15.555Z,33.10
2023-03-03T23:47:42.676Z,32.57
2023-03-03T23:50:11.362Z,33.50
2023-03-03T23:52:38.493Z,34.27
2023-03-03T23:55:06.346Z,32.93
2023-03-03T23:57:33.590Z,33.83
